Time;durP1;ratioP1;P1;durP2;ratioP2;P2;SDS_P1;SDS_P2;PMS_P1;PMS_P2;Temp;Humidity;BMP_temperature;BMP_pressure;BME280_temperature;BME280_humidity;BME280_pressure;Samples;Min_cycle;Max_cycle;Signal;HPM_P1;HPM_P2
2021/06/25 00:00:49;;;;;;;37.40;8.07;;;743.10;1280.00;;;;;;5113563;28;20055;-68
2021/06/25 00:03:15;;;;;;;41.10;9.00;;;743.10;1280.00;;;;;;5113934;28;20020;-70
2021/06/25 00:05:41;;;;;;;28.23;8.70;;;743.10;1305.60;;;;;;5113541;27;20023;-68
2021/06/25 00:08:06;;;;;;;32.30;8.50;;;743.10;1305.60;;;;;;5113431;28;20074;-68
2021/06/25 00:10:33;;;;;;;41.72;8.63;;;743.10;1305.60;;;;;;5112260;28;20024;-67
2021/06/25 00:13:00;;;;;;;43.85;8.75;;;743.00;1305.60;;;;;;5113348;28;20019;-68
2021/06/25 00:15:26;;;;;;;34.65;9.98;;;742.90;1305.60;;;;;;5113814;28;20084;-68
2021/06/25 00:17:53;;;;;;;36.53;8.10;;;742.90;1305.60;;;;;;5113099;28;20020;-68
2021/06/25 00:20:20;;;;;;;38.03;8.77;;;742.90;1305.60;;;;;;5113473;28;20110;-67
2021/06/25 00:22:46;;;;;;;42.88;8.82;;;743.00;1280.00;;;;;;5113095;28;20012;-68
2021/06/25 00:25:12;;;;;;;41.17;8.65;;;743.00;1280.00;;;;;;5111916;28;20028;-67
2021/06/25 00:27:39;;;;;;;34.35;7.78;;;743.00;1280.00;;;;;;5112876;28;20027;-71
2021/06/25 00:30:06;;;;;;;33.80;7.85;;;743.00;1280.00;;;;;;5112918;28;20468;-68
2021/06/25 00:32:32;;;;;;;27.08;7.68;;;743.00;1280.00;;;;;;5113098;28;20024;-68
2021/06/25 00:34:58;;;;;;;41.78;8.48;;;743.00;1280.00;;;;;;5111971;28;20434;-68
2021/06/25 00:37:25;;;;;;;42.88;8.52;;;742.90;1280.00;;;;;;5111845;28;20030;-68
2021/06/25 00:39:52;;;;;;;38.50;8.05;;;742.90;1280.00;;;;;;5112555;28;20024;-69
2021/06/25 00:42:18;;;;;;;29.30;8.52;;;742.90;1280.00;;;;;;5112836;28;20464;-70
2021/06/25 00:44:44;;;;;;;30.50;7.57;;;742.90;1280.00;;;;;;5112709;28;20031;-75
2021/06/25 00:47:11;;;;;;;32.78;7.78;;;742.90;1280.00;;;;;;5112933;28;20548;-68
2021/06/25 00:49:38;;;;;;;33.63;8.02;;;742.80;1280.00;;;;;;5112495;28;20502;-68
2021/06/25 00:52:06;;;;;;;39.95;8.77;;;742.70;1280.00;;;;;;5112495;28;20030;-73
2021/06/25 00:54:32;;;;;;;31.15;8.02;;;742.70;1280.00;;;;;;5112661;28;20035;-68
2021/06/25 00:56:58;;;;;;;43.35;8.50;;;742.70;1280.00;;;;;;5112605;28;20027;-70
2021/06/25 00:59:24;;;;;;;29.05;7.10;;;742.70;1305.60;;;;;;5112534;28;20027;-72
2021/06/25 01:01:50;;;;;;;36.90;7.90;;;742.60;1305.60;;;;;;5112679;28;20078;-67
2021/06/25 01:04:16;;;;;;;35.35;8.30;;;742.60;1305.60;;;;;;5112754;28;20051;-72
2021/06/25 01:06:43;;;;;;;35.67;8.15;;;742.60;1305.60;;;;;;5112331;28;20078;-74
2021/06/25 01:09:09;;;;;;;37.08;7.72;;;742.60;1305.60;;;;;;5112815;28;20404;-69
2021/06/25 01:11:39;;;;;;;34.85;7.82;;;742.60;1331.20;;;;;;5111111;28;20365;-75
2021/06/25 01:14:05;;;;;;;35.03;7.88;;;742.50;1331.20;;;;;;5112303;28;20450;-67
2021/06/25 01:16:31;;;;;;;42.08;7.93;;;742.40;1331.20;;;;;;5112486;28;20077;-71
2021/06/25 01:18:57;;;;;;;27.40;7.60;;;742.40;1356.80;;;;;;5112298;28;20057;-68
2021/06/25 01:21:23;;;;;;;34.85;8.15;;;742.40;1356.80;;;;;;5112246;28;20023;-73
2021/06/25 01:23:49;;;;;;;42.05;9.13;;;717.70;1356.80;;;;;;5112128;28;20081;-72
2021/06/25 01:26:15;;;;;;;36.08;8.20;;;717.70;1356.80;;;;;;5112277;28;20028;-72
2021/06/25 01:28:41;;;;;;;53.30;9.10;;;717.70;1356.80;;;;;;5111980;28;20020;-69
2021/06/25 01:31:07;;;;;;;39.88;8.73;;;717.60;1382.40;;;;;;5112157;28;20016;-66
2021/06/25 01:33:35;;;;;;;30.00;7.90;;;717.50;1382.40;;;;;;5112072;28;20093;-74
2021/06/25 01:36:02;;;;;;;35.05;8.15;;;717.50;1382.40;;;;;;5112216;28;20023;-73
2021/06/25 01:38:28;;;;;;;35.50;8.13;;;717.50;1382.40;;;;;;5112153;28;20476;-68
2021/06/25 01:40:54;;;;;;;33.92;8.10;;;717.50;1382.40;;;;;;5111860;28;20107;-73
2021/06/25 01:43:24;;;;;;;41.55;8.50;;;717.50;1408.00;;;;;;5111609;28;20043;-71
2021/06/25 01:45:51;;;;;;;36.53;8.57;;;717.50;1408.00;;;;;;5111586;28;20052;-73
2021/06/25 01:48:17;;;;;;;28.95;7.93;;;717.40;1408.00;;;;;;5112322;28;20065;-74
2021/06/25 01:50:44;;;;;;;29.77;8.43;;;717.40;1408.00;;;;;;5112078;28;20349;-75
2021/06/25 01:53:15;;;;;;;32.80;8.10;;;717.40;1408.00;;;;;;5112173;28;20028;-73
2021/06/25 01:55:42;;;;;;;35.65;8.50;;;717.50;1408.00;;;;;;5112140;28;20407;-75
2021/06/25 01:58:13;;;;;;;28.13;7.72;;;717.40;1408.00;;;;;;5111872;28;20020;-69
2021/06/25 02:00:46;;;;;;;35.45;8.20;;;717.30;1408.00;;;;;;5111944;28;20028;-68
2021/06/25 02:03:12;;;;;;;38.78;8.45;;;717.30;1408.00;;;;;;5111995;28;20020;-74
2021/06/25 02:05:37;;;;;;;41.03;8.77;;;717.30;1408.00;;;;;;5111867;28;20062;-74
2021/06/25 02:08:03;;;;;;;43.05;8.27;;;717.30;1433.60;;;;;;5110349;28;20062;-73
2021/06/25 02:10:30;;;;;;;33.85;8.07;;;717.30;1433.60;;;;;;5110299;28;20115;-74
2021/06/25 02:12:56;;;;;;;33.72;8.45;;;717.30;1408.00;;;;;;5111591;28;20019;-73
2021/06/25 02:15:23;;;;;;;45.35;10.77;;;717.30;1433.60;;;;;;5111780;28;20053;-70
2021/06/25 02:17:49;;;;;;;38.15;9.45;;;717.40;1433.60;;;;;;5112296;28;20020;-65
2021/06/25 02:20:15;;;;;;;35.38;8.57;;;717.40;1408.00;;;;;;5111433;28;20027;-65
2021/06/25 02:22:41;;;;;;;36.13;8.57;;;717.30;1433.60;;;;;;5112547;28;20076;-65
2021/06/25 02:25:09;;;;;;;29.38;8.10;;;717.30;1433.60;;;;;;5111940;28;20023;-68
2021/06/25 02:27:36;;;;;;;33.45;8.32;;;717.30;1433.60;;;;;;5112798;28;20023;-65
2021/06/25 02:30:07;;;;;;;39.13;8.20;;;717.30;1433.60;;;;;;5113334;28;20020;-65
2021/06/25 02:32:32;;;;;;;39.08;8.55;;;717.30;1433.60;;;;;;5112765;28;20031;-65
2021/06/25 02:34:58;;;;;;;29.48;8.30;;;717.30;1408.00;;;;;;5112991;28;20036;-65
2021/06/25 02:37:24;;;;;;;41.90;9.68;;;717.40;1408.00;;;;;;5112823;28;20073;-66
2021/06/25 02:39:50;;;;;;;32.33;8.55;;;717.40;1408.00;;;;;;5112671;28;20028;-65
2021/06/25 02:42:16;;;;;;;38.72;8.93;;;717.40;1433.60;;;;;;5112445;28;20037;-65
2021/06/25 02:44:42;;;;;;;43.33;8.63;;;717.40;1408.00;;;;;;5112686;28;20534;-74
2021/06/25 02:47:08;;;;;;;45.95;9.30;;;717.40;1408.00;;;;;;5112414;28;20016;-65
2021/06/25 02:49:33;;;;;;;40.97;8.57;;;717.40;1433.60;;;;;;5113064;28;20059;-74
2021/06/25 02:51:59;;;;;;;38.70;8.70;;;717.40;1433.60;;;;;;5112731;28;20020;-66
2021/06/25 02:54:25;;;;;;;32.30;9.05;;;717.40;1433.60;;;;;;5112816;28;20063;-66
2021/06/25 02:56:51;;;;;;;36.88;8.80;;;717.40;1433.60;;;;;;5113505;28;20484;-73
2021/06/25 02:59:17;;;;;;;37.67;8.52;;;717.30;1433.60;;;;;;5116691;28;20032;-64
2021/06/25 03:01:43;;;;;;;37.80;8.32;;;717.30;1433.60;;;;;;5116719;28;20020;-65
2021/06/25 03:04:09;;;;;;;31.33;8.13;;;717.40;1433.60;;;;;;5116882;28;20149;-65
2021/06/25 03:06:35;;;;;;;41.17;9.25;;;717.40;1433.60;;;;;;5116596;28;20019;-65
2021/06/25 03:09:02;;;;;;;38.35;9.00;;;717.30;1459.20;;;;;;5116889;28;20028;-74
2021/06/25 03:11:28;;;;;;;39.42;8.70;;;717.40;1433.60;;;;;;5116523;27;20042;-65
2021/06/25 03:13:54;;;;;;;43.63;8.35;;;717.30;1459.20;;;;;;5116696;28;20464;-74
2021/06/25 03:16:20;;;;;;;30.55;8.75;;;717.30;1433.60;;;;;;5116398;28;20031;-64
2021/06/25 03:18:46;;;;;;;40.40;8.18;;;717.30;1459.20;;;;;;5116669;28;20031;-66
2021/06/25 03:21:13;;;;;;;34.80;8.63;;;717.30;1459.20;;;;;;5116277;28;20414;-65
2021/06/25 03:23:39;;;;;;;44.67;9.88;;;717.20;1459.20;;;;;;5116322;28;20057;-73
2021/06/25 03:26:05;;;;;;;38.53;8.90;;;717.20;1459.20;;;;;;5116186;28;20028;-72
2021/06/25 03:28:31;;;;;;;35.72;8.57;;;717.20;1459.20;;;;;;5116094;28;20026;-64
2021/06/25 03:30:57;;;;;;;31.52;8.38;;;717.20;1484.80;;;;;;5116161;28;20047;-73
2021/06/25 03:33:23;;;;;;;35.83;7.82;;;717.20;1484.80;;;;;;5116576;28;20026;-73
2021/06/25 03:35:49;;;;;;;41.33;9.65;;;717.20;1484.80;;;;;;5116028;28;20023;-64
2021/06/25 03:38:15;;;;;;;30.52;8.85;;;717.00;1484.80;;;;;;5116008;28;20479;-72
2021/06/25 03:40:41;;;;;;;40.20;9.35;;;717.00;1484.80;;;;;;5115998;28;20035;-64
2021/06/25 03:43:07;;;;;;;34.85;8.40;;;717.00;1484.80;;;;;;5115592;28;20393;-72
2021/06/25 03:45:33;;;;;;;49.13;9.10;;;717.00;1484.80;;;;;;5115822;28;20409;-64
2021/06/25 03:47:59;;;;;;;38.65;8.73;;;717.00;1484.80;;;;;;5115828;28;20125;-74
2021/06/25 03:50:25;;;;;;;39.45;8.63;;;717.20;1484.80;;;;;;5116041;28;20069;-65
2021/06/25 03:52:51;;;;;;;30.65;7.72;;;717.20;1459.20;;;;;;5115612;28;20020;-73
2021/06/25 03:55:17;;;;;;;42.67;9.23;;;717.20;1459.20;;;;;;5115581;28;20042;-73
2021/06/25 03:57:44;;;;;;;39.53;8.52;;;717.20;1459.20;;;;;;5115594;28;20102;-66
2021/06/25 04:00:17;;;;;;;37.85;8.13;;;717.30;1459.20;;;;;;5115547;28;20444;-73
2021/06/25 04:02:47;;;;;;;30.95;8.68;;;717.30;1459.20;;;;;;5115821;28;20154;-74
2021/06/25 04:05:15;;;;;;;35.45;8.20;;;717.30;1459.20;;;;;;5114192;28;20028;-73
2021/06/25 04:07:42;;;;;;;31.83;8.75;;;717.30;1459.20;;;;;;5115294;28;20024;-64
2021/06/25 04:10:10;;;;;;;35.72;9.82;;;717.40;1459.20;;;;;;5115482;28;20474;-64
2021/06/25 04:12:37;;;;;;;27.85;8.27;;;717.40;1459.20;;;;;;5115344;28;20030;-64
2021/06/25 04:15:04;;;;;;;47.15;9.60;;;717.40;1459.20;;;;;;5115268;28;20023;-74
2021/06/25 04:17:30;;;;;;;50.50;9.70;;;717.30;1459.20;;;;;;5115163;28;20631;-65
2021/06/25 04:19:56;;;;;;;40.95;9.48;;;717.30;1459.20;;;;;;5113882;28;20126;-64
2021/06/25 04:22:22;;;;;;;43.53;9.82;;;717.30;1459.20;;;;;;5115017;28;20058;-73
2021/06/25 04:24:49;;;;;;;43.80;9.38;;;717.30;1459.20;;;;;;5113801;28;20375;-73
2021/06/25 04:27:16;;;;;;;40.33;8.50;;;717.30;1459.20;;;;;;5114974;28;20492;-64
2021/06/25 04:29:42;;;;;;;38.60;9.18;;;717.30;1459.20;;;;;;5114987;28;20024;-72
2021/06/25 04:32:08;;;;;;;46.08;10.10;;;717.30;1459.20;;;;;;5113627;28;20020;-73
2021/06/25 04:34:34;;;;;;;45.72;9.13;;;717.30;1484.80;;;;;;5114709;28;20483;-64
2021/06/25 04:37:00;;;;;;;47.88;9.30;;;717.20;1484.80;;;;;;5114982;28;20030;-65
2021/06/25 04:39:26;;;;;;;40.05;8.90;;;717.20;1484.80;;;;;;5114766;28;20047;-70
2021/06/25 04:41:52;;;;;;;47.22;8.98;;;717.20;1484.80;;;;;;5115220;28;20479;-73
2021/06/25 04:44:18;;;;;;;38.17;9.10;;;717.20;1484.80;;;;;;5114581;28;20108;-73
2021/06/25 04:46:44;;;;;;;39.35;8.85;;;717.20;1484.80;;;;;;5114740;28;20141;-74
2021/06/25 04:49:10;;;;;;;50.63;8.55;;;717.20;1484.80;;;;;;5114841;28;20077;-73
2021/06/25 04:51:36;;;;;;;49.97;10.43;;;717.20;1484.80;;;;;;5114499;28;20024;-67
2021/06/25 04:54:02;;;;;;;38.42;8.35;;;717.30;1484.80;;;;;;5114751;28;20080;-73
2021/06/25 04:56:28;;;;;;;38.88;8.43;;;717.30;1484.80;;;;;;5114422;28;20033;-74
2021/06/25 04:58:54;;;;;;;49.20;8.13;;;717.40;1484.80;;;;;;5114435;28;20077;-64
2021/06/25 05:01:20;;;;;;;41.15;9.18;;;717.40;1459.20;;;;;;5114698;28;20103;-66
2021/06/25 05:03:46;;;;;;;38.20;8.48;;;717.50;1459.20;;;;;;5114269;28;20026;-65
2021/06/25 05:06:12;;;;;;;44.67;8.82;;;717.50;1459.20;;;;;;5114472;28;20023;-66
2021/06/25 05:08:37;;;;;;;40.95;9.02;;;717.60;1459.20;;;;;;5114315;28;20020;-74
2021/06/25 05:11:03;;;;;;;45.15;8.73;;;717.60;1459.20;;;;;;5114229;28;20029;-74
2021/06/25 05:13:29;;;;;;;38.55;8.77;;;717.60;1459.20;;;;;;5114341;28;20102;-65
2021/06/25 05:15:55;;;;;;;35.95;9.32;;;742.40;1459.20;;;;;;5114152;28;20099;-64
2021/06/25 05:18:22;;;;;;;35.78;9.93;;;717.70;1459.20;;;;;;5114619;28;20026;-64
2021/06/25 05:20:50;;;;;;;45.08;9.77;;;742.40;1459.20;;;;;;5113819;28;20020;-74
2021/06/25 05:23:18;;;;;;;40.28;12.57;;;742.50;1459.20;;;;;;5114104;28;20024;-65
2021/06/25 05:25:45;;;;;;;46.50;13.77;;;742.50;1459.20;;;;;;5112773;28;20073;-64
2021/06/25 05:28:11;;;;;;;35.42;10.85;;;742.50;1433.60;;;;;;5113965;28;20095;-70
2021/06/25 05:30:38;;;;;;;34.53;11.40;;;742.50;1433.60;;;;;;5113978;28;20030;-65
2021/06/25 05:33:05;;;;;;;47.97;13.30;;;742.60;1433.60;;;;;;5112555;28;20027;-67
2021/06/25 05:35:32;;;;;;;40.15;9.18;;;742.50;1433.60;;;;;;5113661;28;20032;-74
2021/06/25 05:38:13;;;;;;;33.35;7.60;;;742.60;1433.60;;;;;;5113395;28;20034;-73
2021/06/25 05:40:39;;;;;;;40.65;7.35;;;742.50;1433.60;;;;;;5114111;28;20107;-64
2021/06/25 05:43:06;;;;;;;34.13;7.18;;;742.50;1459.20;;;;;;5112267;28;20478;-65
2021/06/25 05:45:33;;;;;;;36.22;7.63;;;742.50;1459.20;;;;;;5113684;28;20058;-74
2021/06/25 05:47:59;;;;;;;49.47;7.97;;;742.50;1459.20;;;;;;5114214;28;20015;-66
2021/06/25 05:50:26;;;;;;;30.33;6.82;;;742.60;1433.60;;;;;;5113690;28;20027;-72
2021/06/25 05:52:52;;;;;;;40.13;8.13;;;742.70;1433.60;;;;;;5113662;28;20054;-67
2021/06/25 05:55:18;;;;;;;29.20;6.40;;;742.70;1433.60;;;;;;5112268;28;20151;-65
2021/06/25 05:57:46;;;;;;;31.55;6.72;;;742.70;1408.00;;;;;;5113651;28;20023;-65
2021/06/25 06:00:12;;;;;;;34.38;7.20;;;742.70;1408.00;;;;;;5113687;28;20019;-65
2021/06/25 06:02:38;;;;;;;33.30;6.60;;;742.80;1408.00;;;;;;5113513;28;20020;-65
2021/06/25 06:05:04;;;;;;;29.65;6.20;;;742.90;1408.00;;;;;;5113537;28;20030;-65
2021/06/25 06:07:30;;;;;;;32.30;7.00;;;742.90;1408.00;;;;;;5113800;28;20020;-65
2021/06/25 06:09:56;;;;;;;32.47;7.57;;;743.00;1382.40;;;;;;5113538;28;20034;-66
2021/06/25 06:12:22;;;;;;;32.67;10.48;;;743.00;1382.40;;;;;;5113494;28;20043;-66
2021/06/25 06:14:49;;;;;;;32.20;6.88;;;743.10;1382.40;;;;;;5113782;28;20114;-73
2021/06/25 06:17:18;;;;;;;44.60;7.65;;;743.20;1382.40;;;;;;5113794;28;20020;-67
2021/06/25 06:19:46;;;;;;;24.40;6.82;;;743.30;1382.40;;;;;;5113486;28;20528;-73
2021/06/25 06:36:15;;;;;;;35.10;6.45;;;768.40;1356.80;;;;;;5093673;28;20105;-66
2021/06/25 06:38:42;;;;;;;37.72;7.35;;;768.50;1331.20;;;;;;5117655;28;20027;-65
2021/06/25 06:41:08;;;;;;;31.20;6.07;;;768.60;1331.20;;;;;;5117153;28;20028;-65
2021/06/25 06:43:38;;;;;;;29.83;7.18;;;768.70;1305.60;;;;;;5116798;27;20092;-74
2021/06/25 06:46:05;;;;;;;31.50;7.20;;;768.90;1305.60;;;;;;5117001;28;20016;-74
2021/06/25 06:48:30;;;;;;;27.85;6.90;;;793.60;1331.20;;;;;;5116979;28;20034;-66
2021/06/25 06:50:56;;;;;;;27.33;6.43;;;793.70;1331.20;;;;;;5115662;28;20383;-67
2021/06/25 06:53:22;;;;;;;25.02;6.05;;;793.80;1305.60;;;;;;5116870;28;20099;-66
2021/06/25 06:55:48;;;;;;;36.42;7.40;;;794.00;1305.60;;;;;;5116896;28;20063;-66
2021/06/25 06:58:14;;;;;;;32.55;7.15;;;794.00;1305.60;;;;;;5116810;27;20030;-65
2021/06/25 07:00:40;;;;;;;30.05;5.95;;;794.10;1280.00;;;;;;5116826;28;20015;-65
2021/06/25 07:03:06;;;;;;;30.92;6.57;;;794.20;1305.60;;;;;;5117016;27;20371;-65
2021/06/25 07:05:32;;;;;;;31.65;6.13;;;794.30;1280.00;;;;;;5116692;28;20027;-69
2021/06/25 07:07:57;;;;;;;35.42;6.25;;;794.30;1280.00;;;;;;5116254;28;20103;-74
2021/06/25 07:10:23;;;;;;;30.40;6.40;;;794.40;1280.00;;;;;;5116419;27;20022;-69
2021/06/25 07:12:49;;;;;;;34.47;11.65;;;794.40;1280.00;;;;;;5116268;28;20028;-67
2021/06/25 07:15:15;;;;;;;36.72;12.20;;;794.50;1254.40;;;;;;5115895;28;20515;-73
2021/06/25 07:17:41;;;;;;;25.95;6.97;;;819.20;1280.00;;;;;;5116151;28;20069;-65
2021/06/25 07:20:07;;;;;;;25.90;6.50;;;819.30;1280.00;;;;;;5115755;28;20084;-70
2021/06/25 07:22:33;;;;;;;35.65;6.63;;;819.40;1280.00;;;;;;5114782;28;20016;-70
2021/06/25 07:25:00;;;;;;;31.33;7.50;;;819.40;1254.40;;;;;;5116065;28;20028;-73
2021/06/25 07:27:26;;;;;;;32.78;7.65;;;819.40;1254.40;;;;;;5116210;28;20016;-65
2021/06/25 07:29:52;;;;;;;31.73;6.63;;;819.40;1254.40;;;;;;5116433;28;20435;-66
2021/06/25 07:32:18;;;;;;;32.78;6.68;;;819.50;1254.40;;;;;;5116406;28;20024;-66
2021/06/25 07:34:44;;;;;;;24.20;5.72;;;819.60;1254.40;;;;;;5116097;28;20027;-65
2021/06/25 07:37:09;;;;;;;29.48;6.57;;;819.70;1228.80;;;;;;5116372;28;20027;-74
2021/06/25 07:39:35;;;;;;;31.75;7.07;;;819.70;1228.80;;;;;;5114661;28;20031;-65
2021/06/25 07:42:02;;;;;;;31.35;6.75;;;819.80;1254.40;;;;;;5109286;28;20038;-68
2021/06/25 07:44:28;;;;;;;29.05;6.18;;;819.80;1228.80;;;;;;5113020;28;20488;-67
2021/06/25 07:46:54;;;;;;;25.75;5.90;;;819.80;1228.80;;;;;;5114723;28;20031;-75
2021/06/25 07:49:19;;;;;;;28.05;6.28;;;819.80;1228.80;;;;;;5114627;28;20414;-73
2021/06/25 07:51:45;;;;;;;33.50;6.88;;;819.90;1228.80;;;;;;5114740;28;20065;-74
2021/06/25 07:54:11;;;;;;;27.45;6.10;;;819.90;1228.80;;;;;;5115043;28;20038;-72
2021/06/25 07:56:37;;;;;;;28.75;7.30;;;819.90;1228.80;;;;;;5112784;28;20442;-72
2021/06/25 07:59:03;;;;;;;50.70;7.53;;;819.90;1228.80;;;;;;5114534;28;20028;-67
2021/06/25 08:01:28;;;;;;;22.50;6.40;;;819.90;1228.80;;;;;;5114275;28;20026;-67
2021/06/25 08:03:54;;;;;;;56.45;7.68;;;820.00;1228.80;;;;;;5114823;28;20023;-67
2021/06/25 08:06:20;;;;;;;30.45;6.88;;;820.00;1228.80;;;;;;5112380;28;20085;-73
2021/06/25 08:08:46;;;;;;;24.75;5.93;;;820.00;1228.80;;;;;;5112971;28;20031;-75
2021/06/25 08:11:12;;;;;;;24.38;6.38;;;820.10;1228.80;;;;;;5113673;28;20766;-75
2021/06/25 08:13:37;;;;;;;28.00;6.47;;;820.10;1228.80;;;;;;5113192;28;20027;-68
2021/06/25 08:16:04;;;;;;;26.33;6.18;;;820.10;1203.20;;;;;;5112320;28;20032;-70
2021/06/25 08:18:29;;;;;;;29.17;7.40;;;820.10;1177.60;;;;;;5112952;27;20065;-67
2021/06/25 08:20:55;;;;;;;28.77;5.75;;;820.10;1203.20;;;;;;5111248;28;20024;-67
2021/06/25 08:23:21;;;;;;;22.98;5.43;;;820.10;1177.60;;;;;;5113482;28;20100;-75
2021/06/25 08:25:47;;;;;;;21.13;5.43;;;820.00;1203.20;;;;;;5113678;28;20025;-68
2021/06/25 08:28:13;;;;;;;19.88;6.10;;;820.00;1203.20;;;;;;5111808;28;20024;-73
2021/06/25 08:30:39;;;;;;;24.10;5.90;;;820.00;1177.60;;;;;;5113736;28;20019;-75
2021/06/25 08:33:05;;;;;;;26.70;5.53;;;820.00;1203.20;;;;;;5113610;28;20080;-72
2021/06/25 08:35:31;;;;;;;18.55;5.18;;;820.00;1152.00;;;;;;5113555;28;20035;-75
2021/06/25 08:37:56;;;;;;;18.25;5.55;;;820.00;1152.00;;;;;;5113196;28;20028;-68
2021/06/25 08:40:23;;;;;;;26.92;6.15;;;820.00;1126.40;;;;;;5112294;28;20024;-73
2021/06/25 08:42:50;;;;;;;18.33;4.95;;;819.90;1126.40;;;;;;5112536;28;20055;-70
2021/06/25 08:45:16;;;;;;;20.02;5.18;;;819.90;1152.00;;;;;;5112397;28;20020;-75
2021/06/25 08:47:44;;;;;;;19.00;5.00;;;819.90;1152.00;;;;;;5112862;28;20061;-75
2021/06/25 08:50:12;;;;;;;20.80;5.47;;;819.90;1152.00;;;;;;5112435;28;20030;-69
2021/06/25 08:52:41;;;;;;;26.90;5.45;;;820.00;1152.00;;;;;;5113100;28;20020;-72
2021/06/25 08:55:07;;;;;;;23.08;6.50;;;820.00;1177.60;;;;;;5111981;28;20122;-76
2021/06/25 08:57:34;;;;;;;21.00;5.15;;;820.10;1152.00;;;;;;5112786;28;20019;-76
2021/06/25 09:00:01;;;;;;;22.00;5.53;;;844.80;1177.60;;;;;;5113173;28;20392;-69
2021/06/25 09:02:32;;;;;;;20.13;5.13;;;844.80;1152.00;;;;;;5112181;28;20020;-72
2021/06/25 09:04:58;;;;;;;23.65;5.38;;;844.80;1203.20;;;;;;5110748;28;20051;-75
2021/06/25 09:07:39;;;;;;;18.33;5.00;;;844.80;1203.20;;;;;;5112564;28;20048;-71
2021/06/25 09:10:05;;;;;;;21.85;5.20;;;844.90;1203.20;;;;;;5111506;28;20027;-75
2021/06/25 09:12:31;;;;;;;22.98;5.30;;;844.90;1177.60;;;;;;5112747;28;20028;-73
2021/06/25 09:15:12;;;;;;;39.08;4.78;;;845.00;1203.20;;;;;;5113118;28;20082;-74
2021/06/25 09:18:02;;;;;;;25.92;5.32;;;845.10;1177.60;;;;;;5111172;28;20106;-70
2021/06/25 09:20:38;;;;;;;27.95;5.15;;;845.10;1177.60;;;;;;5113104;28;20024;-68
2021/06/25 09:23:10;;;;;;;19.67;5.45;;;845.00;1152.00;;;;;;5111463;28;20055;-73
2021/06/25 09:25:54;;;;;;;37.35;6.05;;;844.90;1177.60;;;;;;5113015;28;20024;-68
2021/06/25 09:28:45;;;;;;;20.92;5.35;;;845.00;1177.60;;;;;;5112418;28;20026;-68
2021/06/25 09:31:14;;;;;;;25.05;4.80;;;845.00;1177.60;;;;;;5113086;28;20468;-68
2021/06/25 09:33:48;;;;;;;25.00;5.75;;;845.00;1126.40;;;;;;5112630;28;20053;-74
2021/06/25 09:36:23;;;;;;;23.73;5.22;;;844.90;1126.40;;;;;;5112881;28;20484;-69
2021/06/25 09:39:06;;;;;;;22.02;5.10;;;844.90;1100.80;;;;;;5112281;28;20032;-75
2021/06/25 09:41:33;;;;;;;21.55;5.68;;;844.90;1126.40;;;;;;5112198;28;20012;-69
2021/06/25 09:44:02;;;;;;;24.40;5.60;;;845.00;1152.00;;;;;;5112255;28;20127;-68
2021/06/25 09:46:33;;;;;;;18.98;5.25;;;845.10;1126.40;;;;;;5111769;28;20120;-76
2021/06/25 09:49:02;;;;;;;20.63;5.75;;;845.20;1126.40;;;;;;5109572;28;20064;-68
2021/06/25 09:51:29;;;;;;;14.65;4.57;;;845.20;1126.40;;;;;;5110852;28;20032;-67
2021/06/25 09:54:07;;;;;;;19.42;5.80;;;845.30;1152.00;;;;;;5111317;28;20065;-74
2021/06/25 09:56:47;;;;;;;18.38;5.03;;;845.30;1152.00;;;;;;5111993;28;20016;-77
2021/06/25 10:02:19;;;;;;;51.15;7.00;;;845.30;1126.40;;;;;;5111526;28;20024;-69
2021/06/25 10:04:57;;;;;;;27.55;4.93;;;845.30;1126.40;;;;;;5112669;28;20028;-68
2021/06/25 10:07:22;;;;;;;27.77;5.47;;;845.20;1126.40;;;;;;5115266;28;20023;-69
2021/06/25 10:09:50;;;;;;;22.85;5.40;;;845.20;1100.80;;;;;;5116635;28;20035;-68
2021/06/25 10:12:19;;;;;;;46.80;6.75;;;845.20;1100.80;;;;;;5115262;28;20388;-68
2021/06/25 10:14:47;;;;;;;31.52;7.80;;;845.30;1126.40;;;;;;5116430;28;20046;-69
2021/06/25 10:17:14;;;;;;;26.38;6.07;;;845.30;1126.40;;;;;;5116676;28;20051;-69
2021/06/25 10:19:44;;;;;;;30.98;5.03;;;845.30;1152.00;;;;;;5116156;28;20028;-69
2021/06/25 10:22:11;;;;;;;23.58;5.55;;;845.30;1126.40;;;;;;5116752;28;20028;-69
2021/06/25 10:24:39;;;;;;;32.17;10.45;;;845.30;1152.00;;;;;;5115715;28;20028;-69
2021/06/25 10:27:08;;;;;;;22.77;6.13;;;845.30;1152.00;;;;;;5116219;28;20054;-69
2021/06/25 10:29:35;;;;;;;24.52;6.30;;;845.30;1177.60;;;;;;5113925;28;20045;-69
2021/06/25 10:32:03;;;;;;;28.67;5.60;;;845.40;1152.00;;;;;;5114188;28;20024;-69
2021/06/25 10:34:33;;;;;;;28.00;6.05;;;845.40;1126.40;;;;;;5112831;28;20023;-68
2021/06/25 10:37:01;;;;;;;24.88;6.00;;;845.40;1152.00;;;;;;5114974;28;20024;-69
2021/06/25 10:39:29;;;;;;;17.58;5.32;;;845.50;1152.00;;;;;;5115987;28;20020;-68
2021/06/25 10:42:02;;;;;;;22.33;6.00;;;845.50;1152.00;;;;;;5115920;28;20028;-74
2021/06/25 10:44:40;;;;;;;21.70;5.63;;;845.50;1126.40;;;;;;5116032;28;20051;-67
2021/06/25 10:47:26;;;;;;;20.45;5.05;;;845.50;1126.40;;;;;;5115706;28;20019;-68
2021/06/25 10:52:27;;;;;;;20.90;5.35;;;845.60;1075.20;;;;;;5115475;28;20118;-68
2021/06/25 10:55:01;;;;;;;30.27;6.05;;;845.60;1100.80;;;;;;5114341;28;20122;-75
2021/06/25 10:57:28;;;;;;;35.47;5.35;;;845.60;1100.80;;;;;;5113533;28;20085;-76
2021/06/25 10:59:54;;;;;;;32.95;6.15;;;845.60;1100.80;;;;;;5115342;28;20387;-75
2021/06/25 11:02:43;;;;;;;23.45;5.57;;;845.70;1126.40;;;;;;5114864;28;20020;-77
2021/06/25 11:05:27;;;;;;;28.40;5.50;;;845.70;1100.80;;;;;;5115418;28;20027;-77
2021/06/25 11:08:14;;;;;;;23.08;5.78;;;870.40;1075.20;;;;;;5114449;28;20035;-75
2021/06/25 11:10:49;;;;;;;22.08;5.97;;;870.40;1075.20;;;;;;5099587;28;20380;-69
2021/06/25 11:13:16;;;;;;;23.00;6.15;;;870.40;1100.80;;;;;;5114628;28;20016;-76
2021/06/25 11:15:48;;;;;;;31.67;6.53;;;870.50;1100.80;;;;;;5114937;28;20032;-73
2021/06/25 11:18:27;;;;;;;29.42;6.20;;;870.60;1100.80;;;;;;5113539;28;20371;-75
2021/06/25 11:20:57;;;;;;;18.83;5.63;;;870.60;1075.20;;;;;;5111446;28;20480;-77
2021/06/25 11:23:39;;;;;;;21.00;5.22;;;870.60;1100.80;;;;;;5114706;28;20521;-68
2021/06/25 11:26:14;;;;;;;20.00;5.27;;;870.60;1100.80;;;;;;5114578;28;20384;-70
2021/06/25 11:28:50;;;;;;;23.42;5.53;;;870.60;1075.20;;;;;;5114516;28;20472;-77
2021/06/25 11:31:19;;;;;;;23.48;4.88;;;870.60;1100.80;;;;;;5114363;28;20031;-76
2021/06/25 11:33:48;;;;;;;20.95;5.40;;;870.60;1075.20;;;;;;5114695;28;20031;-77
2021/06/25 11:36:16;;;;;;;26.05;5.93;;;870.60;1049.60;;;;;;5112656;28;20031;-70
2021/06/25 11:39:01;;;;;;;22.80;5.20;;;870.60;1075.20;;;;;;5111669;28;20034;-74
2021/06/25 11:41:34;;;;;;;26.13;6.00;;;870.60;1075.20;;;;;;5112103;28;20015;-75
2021/06/25 11:44:06;;;;;;;27.05;5.47;;;870.70;1075.20;;;;;;5113752;28;20607;-75
2021/06/25 11:46:32;;;;;;;29.63;7.63;;;870.70;1024.00;;;;;;5112854;28;20020;-74
2021/06/25 11:49:01;;;;;;;26.23;8.60;;;870.70;1049.60;;;;;;5113074;28;20019;-77
2021/06/25 11:51:41;;;;;;;64.50;19.48;;;870.70;1075.20;;;;;;5114082;28;20060;-76
2021/06/25 11:54:09;;;;;;;33.55;6.47;;;870.70;1049.60;;;;;;5110598;28;20031;-77
2021/06/25 11:56:36;;;;;;;33.67;11.40;;;870.70;998.40;;;;;;5112835;28;20030;-70
2021/06/25 11:59:08;;;;;;;28.35;6.60;;;870.70;1024.00;;;;;;5113333;28;20020;-77
2021/06/25 12:01:46;;;;;;;28.00;8.27;;;870.70;998.40;;;;;;5112662;28;20028;-70
2021/06/25 12:04:12;;;;;;;29.27;7.90;;;870.80;998.40;;;;;;5111433;28;20015;-71
2021/06/25 12:06:52;;;;;;;18.63;5.00;;;870.70;1049.60;;;;;;5113026;28;20541;-71
2021/06/25 12:09:18;;;;;;;31.08;6.80;;;870.80;1024.00;;;;;;5111731;28;20061;-75
2021/06/25 12:11:44;;;;;;;29.85;6.63;;;870.80;1024.00;;;;;;5112810;28;20095;-68
2021/06/25 12:14:10;;;;;;;32.58;8.73;;;870.80;1024.00;;;;;;5112409;28;21025;-68
2021/06/25 12:16:40;;;;;;;27.83;7.32;;;870.80;1024.00;;;;;;5112411;28;20038;-76
2021/06/25 12:19:12;;;;;;;26.00;7.65;;;870.80;1024.00;;;;;;5109997;28;20019;-73
2021/06/25 12:21:39;;;;;;;31.60;6.60;;;870.80;998.40;;;;;;5112682;28;20019;-75
2021/06/25 12:24:05;;;;;;;30.85;6.60;;;870.80;1024.00;;;;;;5109774;28;20020;-77
2021/06/25 12:26:32;;;;;;;28.77;5.43;;;870.80;1049.60;;;;;;5112345;28;20015;-68
2021/06/25 12:29:03;;;;;;;24.55;5.90;;;870.80;1024.00;;;;;;5112386;28;20112;-74
2021/06/25 12:31:33;;;;;;;31.60;5.50;;;870.80;1024.00;;;;;;5108496;28;20023;-77